Eulalia, Pennsylvania
Current Conditions -  °F | °C
As of 3:56 PM on Thursday 18 Dec 2014 (Local Time) from KELZ Reporting Station
Overcast Overcast  
Wind Chill: 18°   Ceiling: 1300
Heat Index: 28°   Visibility: 10mi
Dew Point: 24°   Wind: 12mph
Humidity: 85%   Direction: 290°WNW
Pressure: 29.99"   Gusts: 20mph
Location:  41.7605°N, 77.9728°W
Report Text: KELZ 182056Z AUTO 29010G17KT 10SM OVC013 M02/M04 A2999 RMK AO2 UPE01 SLP183 P0000 60000 I3000 T10221044 51003
Loading
Personal Weather Stations






























Interactive Weather Map New forecast layout! Learn more

10-Day Weather Forecast

Advertisements
Track Severe Weather on mobile